createdAt,value
2019-05-01T00:02:28.656Z,42.30
2019-05-01T00:06:50.150Z,43.87
2019-05-01T00:10:59.243Z,41.90
2019-05-01T00:15:09.605Z,39.90
2019-05-01T00:19:18.657Z,41.73
2019-05-01T00:23:27.581Z,42.60
2019-05-01T00:27:36.883Z,40.53
2019-05-01T00:31:45.768Z,40.60
2019-05-01T00:35:54.675Z,38.93
2019-05-01T00:40:03.807Z,38.03
2019-05-01T00:44:12.747Z,37.20
2019-05-01T00:48:21.683Z,43.17
2019-05-01T00:52:30.552Z,42.20
2019-05-01T00:56:53.720Z,39.13
2019-05-01T01:01:17.203Z,47.73
2019-05-01T01:05:26.150Z,41.63
2019-05-01T01:09:35.181Z,36.57
2019-05-01T01:13:44.108Z,47.50
2019-05-01T01:17:53.060Z,42.27
2019-05-01T01:22:02.067Z,47.97
2019-05-01T01:26:11.060Z,45.50
2019-05-01T01:30:20.063Z,37.77
2019-05-01T01:34:29.025Z,42.40
2019-05-01T01:38:37.971Z,38.20
2019-05-01T01:42:49.012Z,36.77
2019-05-01T01:46:58.059Z,42.53
2019-05-01T01:51:07.083Z,41.17
2019-05-01T01:55:16.299Z,40.47
2019-05-01T01:59:26.269Z,41.97
2019-05-01T02:03:38.128Z,42.83
2019-05-01T02:07:47.236Z,42.43
2019-05-01T02:11:56.866Z,43.53
2019-05-01T02:16:05.931Z,39.97
2019-05-01T02:20:15.099Z,40.67
2019-05-01T02:24:24.052Z,43.30
2019-05-01T02:28:42.566Z,40.87
2019-05-01T02:32:53.570Z,39.80
2019-05-01T02:37:03.988Z,40.50
2019-05-01T02:41:14.795Z,43.07
2019-05-01T02:45:24.811Z,37.73
2019-05-01T02:49:41.582Z,47.23
2019-05-01T02:53:51.649Z,43.53
2019-05-01T02:58:01.400Z,40.17
2019-05-01T03:02:10.744Z,48.67
2019-05-01T03:06:20.760Z,47.40
2019-05-01T03:10:30.129Z,44.30
2019-05-01T03:14:42.943Z,45.57
2019-05-01T03:18:55.788Z,44.10
2019-05-01T03:23:27.597Z,44.73
2019-05-01T03:27:36.607Z,45.43
2019-05-01T03:32:12.841Z,56.27
2019-05-01T03:35:56.940Z,47.40
2019-05-01T03:40:06.406Z,39.77
2019-05-01T03:44:16.229Z,42.00
2019-05-01T03:48:25.953Z,48.40
2019-05-01T03:52:35.328Z,46.20
2019-05-01T03:56:45.089Z,50.90
2019-05-01T04:01:12.583Z,47.40
2019-05-01T04:05:21.647Z,55.77
2019-05-01T04:09:30.724Z,57.53
2019-05-01T04:13:40.493Z,60.07
2019-05-01T04:17:53.737Z,53.53
2019-05-01T04:22:09.221Z,52.93
2019-05-01T04:26:18.231Z,57.13
2019-05-01T04:30:36.789Z,51.57
2019-05-01T04:34:55.471Z,56.90
2019-05-01T04:39:06.348Z,54.37
2019-05-01T04:43:15.605Z,62.37
2019-05-01T04:47:25.724Z,64.00
2019-05-01T04:51:35.538Z,53.77
2019-05-01T04:55:45.407Z,60.43
2019-05-01T04:59:54.468Z,60.23
2019-05-01T05:04:03.783Z,56.50
2019-05-01T05:08:13.107Z,58.87
2019-05-01T05:12:41.668Z,63.93
2019-05-01T05:16:54.783Z,61.07
2019-05-01T05:21:03.755Z,51.83
2019-05-01T05:25:12.760Z,69.90
2019-05-01T05:29:23.598Z,65.73
2019-05-01T05:33:36.019Z,69.60
2019-05-01T05:38:05.334Z,57.00
2019-05-01T05:42:15.083Z,57.30
2019-05-01T05:46:24.296Z,51.40
2019-05-01T05:50:39.541Z,52.17
2019-05-01T05:55:11.807Z,52.87
2019-05-01T05:59:25.968Z,53.30
2019-05-01T06:03:54.831Z,56.93
2019-05-01T06:08:14.829Z,54.30
2019-05-01T06:12:46.906Z,59.10
2019-05-01T06:17:04.096Z,60.23
2019-05-01T06:21:27.447Z,54.23
2019-05-01T06:25:38.882Z,51.47
2019-05-01T06:29:48.372Z,44.27
2019-05-01T06:33:57.430Z,46.53
2019-05-01T06:38:12.245Z,45.50
2019-05-01T06:42:22.067Z,45.00
2019-05-01T06:46:51.889Z,43.47
2019-05-01T06:51:19.886Z,42.27
2019-05-01T06:55:29.821Z,44.67
2019-05-01T06:59:40.659Z,46.10
2019-05-01T07:04:02.847Z,42.57
2019-05-01T07:08:00.995Z,45.73
2019-05-01T07:12:14.649Z,41.83
2019-05-01T07:16:23.563Z,44.37
2019-05-01T07:20:51.507Z,45.50
2019-05-01T07:25:04.120Z,42.57
2019-05-01T07:29:15.213Z,45.10
2019-05-01T07:33:24.538Z,44.83
2019-05-01T07:37:33.698Z,43.50
2019-05-01T07:41:42.562Z,42.77
2019-05-01T07:46:18.307Z,45.90
2019-05-01T07:50:31.629Z,42.90
2019-05-01T07:54:42.395Z,36.33
2019-05-01T07:58:52.045Z,40.90
2019-05-01T08:03:02.659Z,42.00
2019-05-01T08:07:10.137Z,34.60
2019-05-01T08:11:18.983Z,33.53
2019-05-01T08:15:32.315Z,34.90
2019-05-01T08:20:03.667Z,29.77
2019-05-01T08:24:12.528Z,28.60
2019-05-01T08:28:27.716Z,26.10
2019-05-01T08:32:54.075Z,22.87
2019-05-01T08:37:03.024Z,22.80
2019-05-01T08:41:12.037Z,19.43
2019-05-01T08:45:40.622Z,19.30
2019-05-01T08:50:09.497Z,20.50
2019-05-01T08:54:18.346Z,20.07
2019-05-01T08:58:27.194Z,15.53
2019-05-01T09:02:41.740Z,16.63
2019-05-01T09:06:50.254Z,19.03
2019-05-01T09:11:02.346Z,14.03
2019-05-01T09:15:14.725Z,15.03
2019-05-01T09:19:23.685Z,39.47
2019-05-01T09:23:34.395Z,42.93
2019-05-01T09:28:04.092Z,41.53
2019-05-01T09:32:12.013Z,47.50
2019-05-01T09:36:20.947Z,54.13
2019-05-01T09:40:29.732Z,58.03
2019-05-01T09:44:38.992Z,60.53
2019-05-01T09:48:48.742Z,54.87
2019-05-01T09:53:05.431Z,49.53
2019-05-01T09:57:14.286Z,54.60
2019-05-01T10:01:24.068Z,54.50
2019-05-01T10:05:37.995Z,55.40
2019-05-01T10:09:47.305Z,54.77
2019-05-01T10:13:58.530Z,58.70
2019-05-01T10:18:05.770Z,58.70
2019-05-01T10:22:14.569Z,59.33
2019-05-01T10:26:25.479Z,60.73
2019-05-01T10:31:07.060Z,58.73
2019-05-01T10:35:24.359Z,52.90
2019-05-01T10:39:33.131Z,54.70
2019-05-01T10:43:42.167Z,52.70
2019-05-01T10:47:50.938Z,52.90
2019-05-01T10:51:59.739Z,53.23
2019-05-01T10:56:08.526Z,54.90
2019-05-01T11:00:17.542Z,49.60
2019-05-01T11:04:26.398Z,45.23
2019-05-01T11:08:35.256Z,49.73
2019-05-01T11:12:44.031Z,47.47
2019-05-01T11:16:53.147Z,44.27
2019-05-01T11:21:01.963Z,37.87
2019-05-01T11:25:13.158Z,44.90
2019-05-01T11:29:22.079Z,43.67
2019-05-01T11:33:45.219Z,40.37
2019-05-01T11:38:05.758Z,42.57
2019-05-01T11:42:15.023Z,44.03
2019-05-01T11:46:24.031Z,43.00
2019-05-01T11:50:32.887Z,41.03
2019-05-01T11:54:41.740Z,46.00
2019-05-01T11:58:50.846Z,42.83
2019-05-01T12:02:59.871Z,41.67
2019-05-01T12:07:08.819Z,42.20
2019-05-01T12:11:19.295Z,41.77
2019-05-01T12:15:28.170Z,47.47
2019-05-01T12:19:36.956Z,46.17
2019-05-01T12:23:45.752Z,53.33
2019-05-01T12:27:54.598Z,49.03
2019-05-01T12:32:03.542Z,49.70
2019-05-01T12:36:12.656Z,48.83
2019-05-01T12:40:22.039Z,50.33
2019-05-01T12:44:30.819Z,46.40
2019-05-01T12:48:39.587Z,53.90
2019-05-01T12:53:01.408Z,53.00
2019-05-01T12:57:10.694Z,52.30
2019-05-01T13:01:19.694Z,51.47
2019-05-01T13:05:28.518Z,53.33
2019-05-01T13:09:37.656Z,46.80
2019-05-01T13:13:46.442Z,46.50
2019-05-01T13:17:55.571Z,43.27
2019-05-01T13:22:05.395Z,53.03
2019-05-01T13:26:30.087Z,43.47
2019-05-01T13:30:49.284Z,48.33
2019-05-01T13:34:58.050Z,42.23
2019-05-01T13:39:09.897Z,52.33
2019-05-01T13:43:18.920Z,38.70
2019-05-01T13:47:27.702Z,46.23
2019-05-01T13:51:36.474Z,61.00
2019-05-01T13:55:45.327Z,55.50
2019-05-01T13:59:54.178Z,68.20
2019-05-01T14:04:03.502Z,60.30
2019-05-01T14:08:12.361Z,52.40
2019-05-01T14:12:21.142Z,53.50
2019-05-01T14:16:29.920Z,49.40
2019-05-01T14:20:50.803Z,55.57
2019-05-01T14:25:01.066Z,52.93
2019-05-01T14:29:10.096Z,74.87
2019-05-01T14:33:18.870Z,72.80
2019-05-01T14:37:29.902Z,74.63
2019-05-01T14:41:39.260Z,80.80
2019-05-01T14:45:48.127Z,80.63
2019-05-01T14:49:57.021Z,69.03
2019-05-01T14:54:06.492Z,78.00
2019-05-01T14:58:15.642Z,77.00
2019-05-01T15:02:24.640Z,72.50
2019-05-01T15:06:34.831Z,75.80
2019-05-01T15:10:43.690Z,77.93
2019-05-01T15:15:10.732Z,80.30
2019-05-01T15:19:21.870Z,79.33
2019-05-01T15:23:30.667Z,69.50
2019-05-01T15:27:39.456Z,76.00
2019-05-01T15:31:48.932Z,75.27
2019-05-01T15:35:58.088Z,80.67
2019-05-01T15:40:26.465Z,73.33
2019-05-01T15:44:36.831Z,75.23
2019-05-01T15:48:45.590Z,66.23
2019-05-01T15:52:54.391Z,67.17
2019-05-01T15:57:03.168Z,64.33
2019-05-01T16:01:12.170Z,70.23
2019-05-01T16:05:21.414Z,71.63
2019-05-01T16:09:30.244Z,66.90
2019-05-01T16:13:39.316Z,64.37
2019-05-01T16:17:48.101Z,61.23
2019-05-01T16:21:57.038Z,64.40
2019-05-01T16:26:05.882Z,56.27
2019-05-01T16:30:17.795Z,60.50
2019-05-01T16:34:26.906Z,56.40
2019-05-01T16:38:47.870Z,58.03
2019-05-01T16:42:56.630Z,59.27
2019-05-01T16:47:05.731Z,61.07
2019-05-01T16:51:14.491Z,56.77
2019-05-01T16:55:23.764Z,58.60
2019-05-01T16:59:32.539Z,56.07
2019-05-01T17:03:56.783Z,57.90
2019-05-01T17:08:35.642Z,54.77
2019-05-01T17:12:42.827Z,52.40
2019-05-01T17:16:51.670Z,54.77
2019-05-01T17:21:00.456Z,56.77
2019-05-01T17:25:10.655Z,54.17
2019-05-01T17:29:19.423Z,51.97
2019-05-01T17:33:28.782Z,49.13
2019-05-01T17:37:38.371Z,49.33
2019-05-01T17:41:47.411Z,55.73
2019-05-01T17:45:56.258Z,51.27
2019-05-01T17:50:05.797Z,52.40
2019-05-01T17:54:14.562Z,55.90
2019-05-01T17:58:24.940Z,56.87
2019-05-01T18:02:53.190Z,56.30
2019-05-01T18:07:02.043Z,55.37
2019-05-01T18:11:14.219Z,57.43
2019-05-01T18:15:21.932Z,49.20
2019-05-01T18:19:31.666Z,53.97
2019-05-01T18:24:08.767Z,56.73
2019-05-01T18:28:31.718Z,63.77
2019-05-01T18:32:47.575Z,61.00
2019-05-01T18:37:01.553Z,57.87
2019-05-01T18:41:35.827Z,60.87
2019-05-01T18:46:04.301Z,60.03
2019-05-01T18:50:13.778Z,64.90
2019-05-01T18:54:22.534Z,55.90
2019-05-01T18:58:31.387Z,55.47
2019-05-01T19:02:40.319Z,54.60
2019-05-01T19:06:49.354Z,48.23
2019-05-01T19:11:11.047Z,53.90
2019-05-01T19:15:09.036Z,166.63
2019-05-01T19:19:18.064Z,119.17
2019-05-01T19:23:27.957Z,216.47
2019-05-01T19:27:37.415Z,129.03
2019-05-01T19:31:46.178Z,151.23
2019-05-01T19:35:55.246Z,122.80
2019-05-01T19:40:04.661Z,65.50
2019-05-01T19:44:13.987Z,59.27
2019-05-01T19:48:24.157Z,57.10
2019-05-01T19:52:37.825Z,57.17
2019-05-01T19:56:43.751Z,61.13
2019-05-01T20:00:55.921Z,65.27
2019-05-01T20:05:06.235Z,78.87
2019-05-01T20:09:15.583Z,163.37
2019-05-01T20:13:24.515Z,64.60
2019-05-01T20:17:33.599Z,79.57
2019-05-01T20:21:42.407Z,63.83
2019-05-01T20:25:56.006Z,68.93
2019-05-01T20:30:02.263Z,73.73
2019-05-01T20:34:12.107Z,105.17
2019-05-01T20:38:21.698Z,155.27
2019-05-01T20:42:30.475Z,123.43
2019-05-01T20:46:39.795Z,103.57
2019-05-01T20:50:48.575Z,50.23
2019-05-01T20:54:57.349Z,57.20
2019-05-01T20:59:06.277Z,146.13
2019-05-01T21:03:18.198Z,68.60
2019-05-01T21:07:31.821Z,54.77
2019-05-01T21:11:47.426Z,56.27
2019-05-01T21:15:56.446Z,55.43
2019-05-01T21:20:05.533Z,53.50
2019-05-01T21:24:14.664Z,54.83
2019-05-01T21:28:23.966Z,47.23
2019-05-01T21:32:33.964Z,57.53
2019-05-01T21:36:47.698Z,54.73
2019-05-01T21:40:53.907Z,60.00
2019-05-01T21:45:04.376Z,60.70
2019-05-01T21:49:13.292Z,54.13
2019-05-01T21:53:23.840Z,63.50
2019-05-01T21:57:37.311Z,61.13
2019-05-01T22:01:43.391Z,77.03
2019-05-01T22:05:52.520Z,87.57
2019-05-01T22:10:01.376Z,73.83
2019-05-01T22:14:15.389Z,61.77
2019-05-01T22:18:32.523Z,59.67
2019-05-01T22:22:49.478Z,61.37
2019-05-01T22:27:03.420Z,58.20
2019-05-01T22:31:32.090Z,55.33
2019-05-01T22:35:44.362Z,57.90
2019-05-01T22:39:59.162Z,71.23
2019-05-01T22:44:08.090Z,50.90
2019-05-01T22:48:16.943Z,49.23
2019-05-01T22:52:25.987Z,47.33
2019-05-01T22:56:34.999Z,48.60
2019-05-01T23:00:48.451Z,47.63
2019-05-01T23:04:57.292Z,48.60
2019-05-01T23:09:08.426Z,49.57
2019-05-01T23:13:17.539Z,51.00
2019-05-01T23:17:39.625Z,47.17
2019-05-01T23:21:51.020Z,60.43
2019-05-01T23:25:56.891Z,47.83
2019-05-01T23:30:06.808Z,48.90
2019-05-01T23:34:15.671Z,50.83
2019-05-01T23:38:24.507Z,56.13
2019-05-01T23:42:33.591Z,48.07
2019-05-01T23:46:42.443Z,54.20
2019-05-01T23:50:51.249Z,64.70
2019-05-01T23:55:00.306Z,51.97
2019-05-01T23:59:09.155Z,48.77
